Terminal Aerodrome Forecast
Issued by NWS Caribou, ME

Home | Current Version | Previous Version | Text Only | Print | Product List | Glossary On
Versions: 1 2 3 4 5 6 7 8 9 10 11 12 13 14 15
000
FTUS41 KCAR 202300
TAFBGR
TAF
KBGR 202339Z 2100/2124 19011KT P6SM SCT025 OVC040
     FM210200 20009KT 3SM BR SCT015 BKN025
     FM210600 19010KT 2SM BR BKN005
     FM211100 19012KT 1/2SM FG BKN003
     FM211300 17010G20KT P6SM SCT007 BKN020
     FM211900 16010G20KT 3SM -RA BR BKN015=

USA.gov is the U.S. government's official web portal to all federal, state and local government web resources and services.